Terminal Aerodrome Forecast
Issued by NWS

Home | Current Version | Previous Version | Text Only | Print | Product List | Glossary On
Versions: 1 2 3 4 5 6 7 8 9 10 11 12 13 14 15 16 17 18 19 20
000
FTUS46 KSEW 141400 AAB
TAFCLM
TAF AMD
KCLM 141420Z 1414/1512 30006KT 6SM BR BKN004
      TEMPO 1414/1417 2SM BR OVC002
     FM141700 33008KT P6SM SKC
     FM150600 28010KT P6SM BKN007=

USA.gov is the U.S. government's official web portal to all federal, state and local government web resources and services.